sensor_id;sensor_type;location;lat;lon;timestamp;pressure;altitude;pressure_sealevel;temperature;humidity
11038;BME280;5572;49.540;11.932;2023-12-07T00:01:40;97209.72;;;3.36;100.00
11038;BME280;5572;49.540;11.932;2023-12-07T00:04:07;97217.06;;;3.40;100.00
11038;BME280;5572;49.540;11.932;2023-12-07T00:06:33;97221.09;;;3.32;100.00
11038;BME280;5572;49.540;11.932;2023-12-07T00:09:00;97213.72;;;3.45;100.00
11038;BME280;5572;49.540;11.932;2023-12-07T00:11:26;97228.28;;;3.31;100.00
11038;BME280;5572;49.540;11.932;2023-12-07T00:13:54;97228.69;;;3.46;100.00
11038;BME280;5572;49.540;11.932;2023-12-07T00:16:20;97230.66;;;3.39;100.00
11038;BME280;5572;49.540;11.932;2023-12-07T00:18:47;97234.19;;;3.22;100.00
11038;BME280;5572;49.540;11.932;2023-12-07T00:21:14;97228.88;;;3.33;100.00
11038;BME280;5572;49.540;11.932;2023-12-07T00:23:40;97221.69;;;3.34;100.00
11038;BME280;5572;49.540;11.932;2023-12-07T00:26:07;97224.81;;;3.31;100.00
11038;BME280;5572;49.540;11.932;2023-12-07T00:28:34;97232.31;;;3.51;100.00
11038;BME280;5572;49.540;11.932;2023-12-07T00:31:02;97223.97;;;3.59;100.00
11038;BME280;5572;49.540;11.932;2023-12-07T00:33:29;97237.31;;;3.59;100.00
11038;BME280;5572;49.540;11.932;2023-12-07T00:35:55;97247.91;;;3.66;100.00
11038;BME280;5572;49.540;11.932;2023-12-07T00:38:22;97243.00;;;3.51;100.00
11038;BME280;5572;49.540;11.932;2023-12-07T00:40:48;97247.03;;;3.42;100.00
11038;BME280;5572;49.540;11.932;2023-12-07T00:43:15;97246.78;;;3.33;100.00
11038;BME280;5572;49.540;11.932;2023-12-07T00:45:43;97245.69;;;3.22;100.00
11038;BME280;5572;49.540;11.932;2023-12-07T00:48:11;97244.41;;;3.25;100.00
11038;BME280;5572;49.540;11.932;2023-12-07T00:50:38;97242.13;;;3.28;100.00
11038;BME280;5572;49.540;11.932;2023-12-07T00:53:04;97242.38;;;3.38;100.00
11038;BME280;5572;49.540;11.932;2023-12-07T00:55:31;97240.41;;;3.34;100.00
11038;BME280;5572;49.540;11.932;2023-12-07T00:57:57;97249.13;;;3.40;100.00
11038;BME280;5572;49.540;11.932;2023-12-07T01:00:25;97249.56;;;3.38;100.00
11038;BME280;5572;49.540;11.932;2023-12-07T01:02:52;97251.25;;;3.21;100.00
11038;BME280;5572;49.540;11.932;2023-12-07T01:05:20;97254.44;;;3.29;100.00
11038;BME280;5572;49.540;11.932;2023-12-07T01:07:46;97251.16;;;3.27;100.00
11038;BME280;5572;49.540;11.932;2023-12-07T01:10:13;97255.38;;;3.05;100.00
11038;BME280;5572;49.540;11.932;2023-12-07T01:12:40;97246.50;;;3.23;100.00
11038;BME280;5572;49.540;11.932;2023-12-07T01:15:07;97253.41;;;3.12;100.00
11038;BME280;5572;49.540;11.932;2023-12-07T01:17:34;97248.50;;;3.27;100.00
11038;BME280;5572;49.540;11.932;2023-12-07T01:20:01;97259.38;;;3.26;100.00
11038;BME280;5572;49.540;11.932;2023-12-07T01:22:30;97257.28;;;3.16;100.00
11038;BME280;5572;49.540;11.932;2023-12-07T01:24:56;97262.06;;;3.26;100.00
11038;BME280;5572;49.540;11.932;2023-12-07T01:27:23;97267.88;;;3.23;100.00
11038;BME280;5572;49.540;11.932;2023-12-07T01:29:50;97271.13;;;3.25;100.00
11038;BME280;5572;49.540;11.932;2023-12-07T01:32:16;97279.31;;;3.12;100.00
11038;BME280;5572;49.540;11.932;2023-12-07T01:34:43;97280.19;;;3.24;100.00
11038;BME280;5572;49.540;11.932;2023-12-07T01:37:10;97284.72;;;3.23;100.00
11038;BME280;5572;49.540;11.932;2023-12-07T01:39:38;97275.56;;;3.31;100.00
11038;BME280;5572;49.540;11.932;2023-12-07T01:42:04;97282.91;;;3.35;100.00
11038;BME280;5572;49.540;11.932;2023-12-07T01:44:31;97290.28;;;3.22;100.00
11038;BME280;5572;49.540;11.932;2023-12-07T01:46:58;97290.69;;;3.37;100.00
11038;BME280;5572;49.540;11.932;2023-12-07T01:49:24;97296.59;;;3.27;100.00
11038;BME280;5572;49.540;11.932;2023-12-07T01:51:51;97298.22;;;3.28;100.00
11038;BME280;5572;49.540;11.932;2023-12-07T01:54:18;97307.19;;;3.16;100.00
11038;BME280;5572;49.540;11.932;2023-12-07T01:56:46;97301.09;;;3.27;100.00
11038;BME280;5572;49.540;11.932;2023-12-07T01:59:12;97303.16;;;3.25;100.00
11038;BME280;5572;49.540;11.932;2023-12-07T02:01:39;97301.94;;;3.27;100.00
11038;BME280;5572;49.540;11.932;2023-12-07T02:04:05;97310.63;;;3.23;100.00
11038;BME280;5572;49.540;11.932;2023-12-07T02:06:32;97302.13;;;3.26;100.00
11038;BME280;5572;49.540;11.932;2023-12-07T02:08:59;97302.03;;;3.32;100.00
11038;BME280;5572;49.540;11.932;2023-12-07T02:11:25;97314.47;;;3.09;100.00
11038;BME280;5572;49.540;11.932;2023-12-07T02:13:54;97303.69;;;3.33;100.00
11038;BME280;5572;49.540;11.932;2023-12-07T02:16:29;97313.09;;;3.36;100.00
11038;BME280;5572;49.540;11.932;2023-12-07T02:19:02;97315.88;;;3.29;100.00
11038;BME280;5572;49.540;11.932;2023-12-07T02:21:38;97313.09;;;3.36;100.00
11038;BME280;5572;49.540;11.932;2023-12-07T02:24:08;97315.28;;;3.27;100.00
11038;BME280;5572;49.540;11.932;2023-12-07T02:26:38;97316.09;;;3.28;100.00
11038;BME280;5572;49.540;11.932;2023-12-07T02:29:05;97311.09;;;3.31;100.00
11038;BME280;5572;49.540;11.932;2023-12-07T02:31:31;97314.75;;;3.19;100.00
11038;BME280;5572;49.540;11.932;2023-12-07T02:33:58;97308.91;;;3.28;100.00
11038;BME280;5572;49.540;11.932;2023-12-07T02:36:27;97311.84;;;3.20;100.00
11038;BME280;5572;49.540;11.932;2023-12-07T02:38:56;97314.69;;;3.25;100.00
11038;BME280;5572;49.540;11.932;2023-12-07T02:41:26;97305.72;;;3.20;100.00
11038;BME280;5572;49.540;11.932;2023-12-07T02:43:55;97305.81;;;3.42;100.00
11038;BME280;5572;49.540;11.932;2023-12-07T02:46:22;97319.31;;;3.47;100.00
11038;BME280;5572;49.540;11.932;2023-12-07T02:48:49;97317.13;;;3.56;100.00
11038;BME280;5572;49.540;11.932;2023-12-07T02:51:16;97309.97;;;3.68;100.00
11038;BME280;5572;49.540;11.932;2023-12-07T02:53:42;97326.63;;;3.52;100.00
11038;BME280;5572;49.540;11.932;2023-12-07T02:56:09;97330.59;;;3.49;100.00
11038;BME280;5572;49.540;11.932;2023-12-07T02:58:35;97340.56;;;3.25;100.00
11038;BME280;5572;49.540;11.932;2023-12-07T03:01:04;97336.19;;;3.30;100.00
11038;BME280;5572;49.540;11.932;2023-12-07T03:03:30;97331.50;;;3.26;100.00
11038;BME280;5572;49.540;11.932;2023-12-07T03:05:57;97330.78;;;3.19;100.00
11038;BME280;5572;49.540;11.932;2023-12-07T03:08:23;97331.22;;;3.34;100.00
11038;BME280;5572;49.540;11.932;2023-12-07T03:10:50;97338.66;;;3.32;100.00
11038;BME280;5572;49.540;11.932;2023-12-07T03:13:16;97328.44;;;3.40;100.00
11038;BME280;5572;49.540;11.932;2023-12-07T03:15:43;97335.06;;;3.38;100.00
11038;BME280;5572;49.540;11.932;2023-12-07T03:18:11;97334.97;;;3.44;100.00
11038;BME280;5572;49.540;11.932;2023-12-07T03:20:38;97330.06;;;3.41;100.00
11038;BME280;5572;49.540;11.932;2023-12-07T03:23:04;97336.56;;;3.34;100.00
11038;BME280;5572;49.540;11.932;2023-12-07T03:25:31;97346.97;;;3.24;100.00
11038;BME280;5572;49.540;11.932;2023-12-07T03:27:57;97338.09;;;3.41;100.00
11038;BME280;5572;49.540;11.932;2023-12-07T03:30:24;97348.00;;;3.23;100.00
11038;BME280;5572;49.540;11.932;2023-12-07T03:32:51;97345.03;;;3.31;100.00
11038;BME280;5572;49.540;11.932;2023-12-07T03:35:19;97349.06;;;3.51;100.00
11038;BME280;5572;49.540;11.932;2023-12-07T03:37:45;97356.03;;;3.52;100.00
11038;BME280;5572;49.540;11.932;2023-12-07T03:40:12;97348.63;;;3.54;100.00
11038;BME280;5572;49.540;11.932;2023-12-07T03:42:38;97361.19;;;3.53;100.00
11038;BME280;5572;49.540;11.932;2023-12-07T03:45:06;97357.38;;;3.43;100.00
11038;BME280;5572;49.540;11.932;2023-12-07T03:47:33;97362.88;;;3.48;100.00
11038;BME280;5572;49.540;11.932;2023-12-07T03:49:59;97373.97;;;3.34;100.00
11038;BME280;5572;49.540;11.932;2023-12-07T03:52:27;97368.25;;;3.12;100.00
11038;BME280;5572;49.540;11.932;2023-12-07T03:54:54;97361.19;;;3.18;100.00
11038;BME280;5572;49.540;11.932;2023-12-07T03:57:21;97353.50;;;3.10;100.00
11038;BME280;5572;49.540;11.932;2023-12-07T03:59:47;97365.16;;;2.97;100.00
11038;BME280;5572;49.540;11.932;2023-12-07T04:02:14;97363.16;;;2.93;100.00
11038;BME280;5572;49.540;11.932;2023-12-07T04:04:40;97362.41;;;3.04;100.00
11038;BME280;5572;49.540;11.932;2023-12-07T04:07:07;97369.81;;;3.02;100.00
11038;BME280;5572;49.540;11.932;2023-12-07T04:09:35;97370.47;;;3.15;100.00
11038;BME280;5572;49.540;11.932;2023-12-07T04:12:02;97383.59;;;3.17;100.00
11038;BME280;5572;49.540;11.932;2023-12-07T04:14:28;97382.25;;;3.26;100.00
11038;BME280;5572;49.540;11.932;2023-12-07T04:16:55;97384.50;;;3.11;100.00
11038;BME280;5572;49.540;11.932;2023-12-07T04:19:21;97386.81;;;3.07;100.00
11038;BME280;5572;49.540;11.932;2023-12-07T04:21:48;97392.78;;;2.85;100.00
11038;BME280;5572;49.540;11.932;2023-12-07T04:24:14;97384.66;;;2.98;100.00
11038;BME280;5572;49.540;11.932;2023-12-07T04:26:42;97393.56;;;2.92;100.00
11038;BME280;5572;49.540;11.932;2023-12-07T04:29:09;97384.94;;;3.08;100.00
11038;BME280;5572;49.540;11.932;2023-12-07T04:31:35;97391.63;;;2.99;100.00
11038;BME280;5572;49.540;11.932;2023-12-07T04:34:02;97392.78;;;2.85;100.00
11038;BME280;5572;49.540;11.932;2023-12-07T04:36:29;97385.84;;;2.84;100.00
11038;BME280;5572;49.540;11.932;2023-12-07T04:38:55;97397.94;;;2.62;100.00
11038;BME280;5572;49.540;11.932;2023-12-07T04:41:22;97404.31;;;2.61;100.00
11038;BME280;5572;49.540;11.932;2023-12-07T04:43:50;97402.63;;;2.66;100.00
11038;BME280;5572;49.540;11.932;2023-12-07T04:46:16;97408.31;;;2.52;100.00
11038;BME280;5572;49.540;11.932;2023-12-07T04:48:43;97419.22;;;2.20;100.00
11038;BME280;5572;49.540;11.932;2023-12-07T04:51:09;97413.06;;;2.19;100.00
11038;BME280;5572;49.540;11.932;2023-12-07T04:53:36;97420.84;;;2.21;100.00
11038;BME280;5572;49.540;11.932;2023-12-07T04:56:03;97434.53;;;2.00;100.00
11038;BME280;5572;49.540;11.932;2023-12-07T04:58:30;97438.06;;;1.94;100.00
11038;BME280;5572;49.540;11.932;2023-12-07T05:00:58;97439.38;;;1.78;100.00
11038;BME280;5572;49.540;11.932;2023-12-07T05:03:25;97436.00;;;1.59;100.00
11038;BME280;5572;49.540;11.932;2023-12-07T05:05:51;97434.25;;;1.83;100.00
11038;BME280;5572;49.540;11.932;2023-12-07T05:08:18;97439.78;;;1.75;100.00
11038;BME280;5572;49.540;11.932;2023-12-07T05:10:45;97442.09;;;1.66;100.00
11038;BME280;5572;49.540;11.932;2023-12-07T05:13:11;97433.91;;;1.67;100.00
11038;BME280;5572;49.540;11.932;2023-12-07T05:15:38;97433.28;;;1.65;100.00
11038;BME280;5572;49.540;11.932;2023-12-07T05:18:06;97447.50;;;1.53;100.00
11038;BME280;5572;49.540;11.932;2023-12-07T05:20:32;97437.38;;;1.67;100.00
11038;BME280;5572;49.540;11.932;2023-12-07T05:22:59;97445.19;;;1.63;100.00
11038;BME280;5572;49.540;11.932;2023-12-07T05:25:26;97461.44;;;1.55;100.00
11038;BME280;5572;49.540;11.932;2023-12-07T05:27:52;97461.00;;;1.51;100.00
11038;BME280;5572;49.540;11.932;2023-12-07T05:30:19;97461.91;;;1.26;100.00
11038;BME280;5572;49.540;11.932;2023-12-07T05:32:46;97461.66;;;1.47;100.00
11038;BME280;5572;49.540;11.932;2023-12-07T05:35:14;97463.66;;;1.58;100.00
11038;BME280;5572;49.540;11.932;2023-12-07T05:37:41;97469.00;;;1.51;100.00
11038;BME280;5572;49.540;11.932;2023-12-07T05:40:08;97481.13;;;1.47;100.00
11038;BME280;5572;49.540;11.932;2023-12-07T05:42:37;97476.16;;;1.57;100.00
11038;BME280;5572;49.540;11.932;2023-12-07T05:45:04;97478.25;;;1.42;100.00
11038;BME280;5572;49.540;11.932;2023-12-07T05:47:31;97479.72;;;1.45;100.00
11038;BME280;5572;49.540;11.932;2023-12-07T05:49:58;97472.38;;;1.34;100.00
11038;BME280;5572;49.540;11.932;2023-12-07T05:52:30;97477.25;;;1.37;100.00
11038;BME280;5572;49.540;11.932;2023-12-07T05:54:56;97480.88;;;1.55;100.00
11038;BME280;5572;49.540;11.932;2023-12-07T05:57:23;97487.59;;;1.64;100.00
11038;BME280;5572;49.540;11.932;2023-12-07T05:59:50;97481.88;;;1.61;100.00
11038;BME280;5572;49.540;11.932;2023-12-07T06:02:16;97465.78;;;1.86;100.00
11038;BME280;5572;49.540;11.932;2023-12-07T06:04:43;97475.25;;;1.76;100.00
11038;BME280;5572;49.540;11.932;2023-12-07T06:07:10;97473.41;;;1.76;100.00
11038;BME280;5572;49.540;11.932;2023-12-07T06:09:39;97474.63;;;1.80;100.00
11038;BME280;5572;49.540;11.932;2023-12-07T06:12:06;97485.94;;;1.69;100.00
11038;BME280;5572;49.540;11.932;2023-12-07T06:14:33;97474.78;;;1.85;100.00
11038;BME280;5572;49.540;11.932;2023-12-07T06:17:00;97499.66;;;1.73;100.00
11038;BME280;5572;49.540;11.932;2023-12-07T06:19:26;97492.56;;;1.48;100.00
11038;BME280;5572;49.540;11.932;2023-12-07T06:21:53;97491.28;;;1.69;100.00
11038;BME280;5572;49.540;11.932;2023-12-07T06:24:19;97497.63;;;1.68;100.00
11038;BME280;5572;49.540;11.932;2023-12-07T06:26:50;97502.06;;;1.31;100.00
11038;BME280;5572;49.540;11.932;2023-12-07T06:29:17;97504.09;;;1.35;100.00
11038;BME280;5572;49.540;11.932;2023-12-07T06:31:44;97512.53;;;1.19;100.00
11038;BME280;5572;49.540;11.932;2023-12-07T06:34:11;97506.81;;;1.09;100.00
11038;BME280;5572;49.540;11.932;2023-12-07T06:36:37;97523.41;;;0.73;100.00
11038;BME280;5572;49.540;11.932;2023-12-07T06:39:04;97523.84;;;0.63;100.00
11038;BME280;5572;49.540;11.932;2023-12-07T06:41:31;97517.47;;;0.71;100.00
11038;BME280;5572;49.540;11.932;2023-12-07T06:43:59;97518.94;;;0.73;100.00
11038;BME280;5572;49.540;11.932;2023-12-07T06:46:26;97517.50;;;0.64;100.00
11038;BME280;5572;49.540;11.932;2023-12-07T06:48:53;97522.59;;;0.85;100.00
11038;BME280;5572;49.540;11.932;2023-12-07T06:51:19;97543.22;;;0.51;100.00
11038;BME280;5572;49.540;11.932;2023-12-07T06:53:46;97522.00;;;0.83;100.00
11038;BME280;5572;49.540;11.932;2023-12-07T06:56:13;97516.84;;;0.94;100.00
11038;BME280;5572;49.540;11.932;2023-12-07T06:58:40;97516.63;;;1.02;100.00
11038;BME280;5572;49.540;11.932;2023-12-07T07:01:08;97524.00;;;1.07;100.00
11038;BME280;5572;49.540;11.932;2023-12-07T07:03:34;97523.19;;;1.19;100.00
11038;BME280;5572;49.540;11.932;2023-12-07T07:06:01;97531.38;;;1.18;100.00
11038;BME280;5572;49.540;11.932;2023-12-07T07:08:28;97514.75;;;1.35;100.00
11038;BME280;5572;49.540;11.932;2023-12-07T07:10:55;97533.63;;;1.21;100.00
11038;BME280;5572;49.540;11.932;2023-12-07T07:13:22;97545.31;;;0.94;100.00
11038;BME280;5572;49.540;11.932;2023-12-07T07:15:49;97536.91;;;1.29;100.00
11038;BME280;5572;49.540;11.932;2023-12-07T07:18:16;97557.81;;;1.13;100.00
11038;BME280;5572;49.540;11.932;2023-12-07T07:20:43;97554.13;;;0.94;100.00
11038;BME280;5572;49.540;11.932;2023-12-07T07:23:10;97549.75;;;1.45;100.00
11038;BME280;5572;49.540;11.932;2023-12-07T07:25:37;97560.41;;;1.52;100.00
11038;BME280;5572;49.540;11.932;2023-12-07T07:28:05;97560.56;;;1.63;100.00
11038;BME280;5572;49.540;11.932;2023-12-07T07:30:33;97558.38;;;1.47;100.00
11038;BME280;5572;49.540;11.932;2023-12-07T07:32:59;97565.63;;;1.77;100.00
11038;BME280;5572;49.540;11.932;2023-12-07T07:35:27;97570.44;;;1.43;100.00
11038;BME280;5572;49.540;11.932;2023-12-07T07:37:54;97559.13;;;1.61;100.00
11038;BME280;5572;49.540;11.932;2023-12-07T07:40:21;97555.31;;;2.00;100.00
11038;BME280;5572;49.540;11.932;2023-12-07T07:42:47;97549.69;;;2.21;100.00
11038;BME280;5572;49.540;11.932;2023-12-07T07:45:14;97557.97;;;2.00;100.00
11038;BME280;5572;49.540;11.932;2023-12-07T07:47:41;97546.31;;;2.39;100.00
11038;BME280;5572;49.540;11.932;2023-12-07T07:50:09;97555.31;;;2.44;100.00
11038;BME280;5572;49.540;11.932;2023-12-07T07:52:38;97565.72;;;2.52;100.00
11038;BME280;5572;49.540;11.932;2023-12-07T07:55:06;97563.09;;;2.76;100.00
11038;BME280;5572;49.540;11.932;2023-12-07T07:57:33;97562.91;;;2.71;100.00
11038;BME280;5572;49.540;11.932;2023-12-07T07:59:59;97570.81;;;2.84;100.00
11038;BME280;5572;49.540;11.932;2023-12-07T08:02:26;97572.63;;;2.90;100.00
11038;BME280;5572;49.540;11.932;2023-12-07T08:04:53;97573.19;;;2.68;100.00
11038;BME280;5572;49.540;11.932;2023-12-07T08:07:20;97573.88;;;2.88;100.00
11038;BME280;5572;49.540;11.932;2023-12-07T08:09:47;97581.88;;;2.88;100.00
11038;BME280;5572;49.540;11.932;2023-12-07T08:12:14;97578.56;;;2.92;100.00
11038;BME280;5572;49.540;11.932;2023-12-07T08:14:40;97583.91;;;3.17;100.00
11038;BME280;5572;49.540;11.932;2023-12-07T08:17:09;97581.47;;;3.15;100.00
11038;BME280;5572;49.540;11.932;2023-12-07T08:19:35;97585.53;;;2.93;100.00
11038;BME280;5572;49.540;11.932;2023-12-07T08:22:02;97573.09;;;3.12;100.00
11038;BME280;5572;49.540;11.932;2023-12-07T08:24:29;97577.91;;;3.21;100.00
11038;BME280;5572;49.540;11.932;2023-12-07T08:26:57;97577.53;;;3.42;100.00
11038;BME280;5572;49.540;11.932;2023-12-07T08:29:23;97567.22;;;3.45;100.00
11038;BME280;5572;49.540;11.932;2023-12-07T08:31:59;97572.41;;;3.40;100.00
11038;BME280;5572;49.540;11.932;2023-12-07T08:34:25;97570.59;;;3.59;100.00
11038;BME280;5572;49.540;11.932;2023-12-07T08:36:52;97570.00;;;3.57;100.00
11038;BME280;5572;49.540;11.932;2023-12-07T08:39:19;97565.03;;;3.78;100.00
11038;BME280;5572;49.540;11.932;2023-12-07T08:41:45;97556.91;;;4.03;100.00
11038;BME280;5572;49.540;11.932;2023-12-07T08:44:13;97562.41;;;4.25;100.00
11038;BME280;5572;49.540;11.932;2023-12-07T08:46:40;97561.28;;;4.33;100.00
11038;BME280;5572;49.540;11.932;2023-12-07T08:49:09;97552.78;;;4.36;100.00
11038;BME280;5572;49.540;11.932;2023-12-07T08:51:35;97559.00;;;4.19;100.00
11038;BME280;5572;49.540;11.932;2023-12-07T08:54:02;97543.53;;;4.21;100.00
11038;BME280;5572;49.540;11.932;2023-12-07T08:56:30;97554.78;;;3.93;100.00
11038;BME280;5572;49.540;11.932;2023-12-07T08:58:57;97536.69;;;4.24;100.00
11038;BME280;5572;49.540;11.932;2023-12-07T09:01:25;97557.06;;;3.72;100.00
11038;BME280;5572;49.540;11.932;2023-12-07T09:03:52;97541.31;;;4.00;100.00
11038;BME280;5572;49.540;11.932;2023-12-07T09:06:19;97534.81;;;4.25;100.00
11038;BME280;5572;49.540;11.932;2023-12-07T09:08:45;97538.41;;;4.19;100.00
11038;BME280;5572;49.540;11.932;2023-12-07T09:11:12;97536.94;;;4.23;100.00
11038;BME280;5572;49.540;11.932;2023-12-07T09:13:38;97522.28;;;4.25;100.00
11038;BME280;5572;49.540;11.932;2023-12-07T09:16:05;97534.41;;;4.39;100.00
11038;BME280;5572;49.540;11.932;2023-12-07T09:18:35;97528.69;;;4.65;100.00
11038;BME280;5572;49.540;11.932;2023-12-07T09:21:01;97527.50;;;4.61;100.00
11038;BME280;5572;49.540;11.932;2023-12-07T09:23:28;97539.53;;;4.12;100.00
11038;BME280;5572;49.540;11.932;2023-12-07T09:25:55;97532.75;;;4.27;100.00
11038;BME280;5572;49.540;11.932;2023-12-07T09:28:20;97532.63;;;4.22;100.00
11038;BME280;5572;49.540;11.932;2023-12-07T09:30:47;97511.94;;;4.70;100.00
11038;BME280;5572;49.540;11.932;2023-12-07T09:33:13;97515.66;;;4.57;100.00
11038;BME280;5572;49.540;11.932;2023-12-07T09:35:41;97506.66;;;4.52;100.00
11038;BME280;5572;49.540;11.932;2023-12-07T09:38:08;97495.69;;;4.83;100.00
11038;BME280;5572;49.540;11.932;2023-12-07T09:40:35;97492.31;;;4.87;100.00
11038;BME280;5572;49.540;11.932;2023-12-07T09:43:02;97495.25;;;4.97;100.00
11038;BME280;5572;49.540;11.932;2023-12-07T09:45:29;97486.97;;;4.99;100.00
11038;BME280;5572;49.540;11.932;2023-12-07T09:47:55;97474.50;;;5.15;100.00
11038;BME280;5572;49.540;11.932;2023-12-07T09:50:23;97467.19;;;5.22;100.00
11038;BME280;5572;49.540;11.932;2023-12-07T09:52:52;97481.81;;;4.86;100.00
11038;BME280;5572;49.540;11.932;2023-12-07T09:55:19;97451.44;;;5.26;100.00
11038;BME280;5572;49.540;11.932;2023-12-07T09:57:48;97450.84;;;5.35;100.00
11038;BME280;5572;49.540;11.932;2023-12-07T10:00:15;97440.13;;;5.47;100.00
11038;BME280;5572;49.540;11.932;2023-12-07T10:02:45;97434.13;;;5.56;100.00
11038;BME280;5572;49.540;11.932;2023-12-07T10:05:13;97432.03;;;5.58;100.00
11038;BME280;5572;49.540;11.932;2023-12-07T10:07:42;97441.84;;;5.53;100.00
11038;BME280;5572;49.540;11.932;2023-12-07T10:10:10;97447.41;;;5.63;100.00
11038;BME280;5572;49.540;11.932;2023-12-07T10:12:44;97442.09;;;5.51;100.00
11038;BME280;5572;49.540;11.932;2023-12-07T10:15:13;97425.38;;;5.72;100.00
11038;BME280;5572;49.540;11.932;2023-12-07T10:17:45;97413.28;;;5.97;100.00
11038;BME280;5572;49.540;11.932;2023-12-07T10:20:14;97439.38;;;5.63;100.00
11038;BME280;5572;49.540;11.932;2023-12-07T10:22:40;97416.13;;;5.80;100.00
11038;BME280;5572;49.540;11.932;2023-12-07T10:25:07;97413.81;;;5.83;100.00
11038;BME280;5572;49.540;11.932;2023-12-07T10:27:37;97412.13;;;5.94;100.00
11038;BME280;5572;49.540;11.932;2023-12-07T10:30:07;97397.59;;;6.06;100.00
11038;BME280;5572;49.540;11.932;2023-12-07T10:32:36;97386.44;;;6.25;100.00
11038;BME280;5572;49.540;11.932;2023-12-07T10:35:04;97382.75;;;6.15;100.00
11038;BME280;5572;49.540;11.932;2023-12-07T10:37:32;97387.22;;;6.26;100.00
11038;BME280;5572;49.540;11.932;2023-12-07T10:39:58;97379.75;;;6.28;100.00
11038;BME280;5572;49.540;11.932;2023-12-07T10:42:25;97398.09;;;6.03;100.00
11038;BME280;5572;49.540;11.932;2023-12-07T10:44:57;97378.97;;;6.44;100.00
11038;BME280;5572;49.540;11.932;2023-12-07T10:47:30;97378.16;;;6.43;100.00
11038;BME280;5572;49.540;11.932;2023-12-07T10:50:00;97395.09;;;6.44;100.00
11038;BME280;5572;49.540;11.932;2023-12-07T10:52:30;97405.31;;;6.47;100.00
11038;BME280;5572;49.540;11.932;2023-12-07T10:55:02;97419.97;;;6.11;100.00
11038;BME280;5572;49.540;11.932;2023-12-07T10:57:30;97442.66;;;5.53;100.00
11038;BME280;5572;49.540;11.932;2023-12-07T11:00:00;97427.97;;;5.56;100.00
11038;BME280;5572;49.540;11.932;2023-12-07T11:02:28;97435.56;;;5.59;100.00
11038;BME280;5572;49.540;11.932;2023-12-07T11:04:56;97430.97;;;5.82;100.00
11038;BME280;5572;49.540;11.932;2023-12-07T11:07:25;97471.50;;;5.23;100.00
11038;BME280;5572;49.540;11.932;2023-12-07T11:10:00;97453.53;;;5.47;100.00
11038;BME280;5572;49.540;11.932;2023-12-07T11:12:35;97466.94;;;5.12;100.00
11038;BME280;5572;49.540;11.932;2023-12-07T11:15:07;97474.50;;;4.93;100.00
11038;BME280;5572;49.540;11.932;2023-12-07T11:17:47;97439.00;;;5.71;100.00
11038;BME280;5572;49.540;11.932;2023-12-07T11:20:18;97439.91;;;5.76;100.00
11038;BME280;5572;49.540;11.932;2023-12-07T11:22:45;97465.03;;;5.47;100.00
11038;BME280;5572;49.540;11.932;2023-12-07T11:25:14;97491.81;;;4.67;100.00
11038;BME280;5572;49.540;11.932;2023-12-07T11:27:44;97448.72;;;5.60;100.00
11038;BME280;5572;49.540;11.932;2023-12-07T11:30:14;97455.63;;;5.45;100.00
11038;BME280;5572;49.540;11.932;2023-12-07T11:32:43;97472.41;;;5.06;100.00
11038;BME280;5572;49.540;11.932;2023-12-07T11:35:12;97462.28;;;5.19;100.00
11038;BME280;5572;49.540;11.932;2023-12-07T11:38:05;97450.94;;;5.52;100.00
11038;BME280;5572;49.540;11.932;2023-12-07T11:40:34;97449.16;;;5.57;100.00
11038;BME280;5572;49.540;11.932;2023-12-07T11:43:01;97460.03;;;5.39;100.00
11038;BME280;5572;49.540;11.932;2023-12-07T11:45:39;97454.88;;;5.72;100.00
11038;BME280;5572;49.540;11.932;2023-12-07T11:48:10;97444.13;;;6.39;100.00
11038;BME280;5572;49.540;11.932;2023-12-07T11:50:53;97455.63;;;6.51;100.00
11038;BME280;5572;49.540;11.932;2023-12-07T11:53:21;97454.41;;;6.59;100.00
11038;BME280;5572;49.540;11.932;2023-12-07T11:55:48;97467.91;;;6.47;100.00
11038;BME280;5572;49.540;11.932;2023-12-07T11:58:15;97487.06;;;6.23;100.00
11038;BME280;5572;49.540;11.932;2023-12-07T12:00:43;97490.78;;;6.22;100.00
11038;BME280;5572;49.540;11.932;2023-12-07T12:03:09;97505.25;;;5.70;100.00
11038;BME280;5572;49.540;11.932;2023-12-07T12:05:36;97514.00;;;5.31;100.00
11038;BME280;5572;49.540;11.932;2023-12-07T12:08:04;97457.91;;;6.59;100.00
11038;BME280;5572;49.540;11.932;2023-12-07T12:10:31;97485.75;;;5.75;100.00
11038;BME280;5572;49.540;11.932;2023-12-07T12:13:01;97475.03;;;6.14;100.00
11038;BME280;5572;49.540;11.932;2023-12-07T12:15:28;97442.53;;;6.87;100.00
11038;BME280;5572;49.540;11.932;2023-12-07T12:17:57;97479.13;;;5.89;100.00
11038;BME280;5572;49.540;11.932;2023-12-07T12:20:23;97488.09;;;5.60;100.00
11038;BME280;5572;49.540;11.932;2023-12-07T12:22:50;97482.16;;;5.46;100.00
11038;BME280;5572;49.540;11.932;2023-12-07T12:25:19;97478.09;;;5.44;100.00
11038;BME280;5572;49.540;11.932;2023-12-07T12:27:46;97505.91;;;4.45;100.00
11038;BME280;5572;49.540;11.932;2023-12-07T12:30:13;97476.72;;;5.18;100.00
11038;BME280;5572;49.540;11.932;2023-12-07T12:32:43;97464.03;;;5.37;100.00
11038;BME280;5572;49.540;11.932;2023-12-07T12:35:11;97481.25;;;4.95;100.00
11038;BME280;5572;49.540;11.932;2023-12-07T12:37:40;97467.03;;;5.40;100.00
11038;BME280;5572;49.540;11.932;2023-12-07T12:40:08;97508.84;;;4.43;100.00
11038;BME280;5572;49.540;11.932;2023-12-07T12:42:35;97483.34;;;4.82;100.00
11038;BME280;5572;49.540;11.932;2023-12-07T12:45:03;97482.59;;;4.75;100.00
11038;BME280;5572;49.540;11.932;2023-12-07T12:47:30;97452.72;;;5.23;100.00
11038;BME280;5572;49.540;11.932;2023-12-07T12:49:57;97489.59;;;4.64;100.00
11038;BME280;5572;49.540;11.932;2023-12-07T12:52:28;97446.63;;;5.62;100.00
11038;BME280;5572;49.540;11.932;2023-12-07T12:54:55;97453.72;;;5.57;100.00
11038;BME280;5572;49.540;11.932;2023-12-07T12:57:22;97467.19;;;5.22;100.00
11038;BME280;5572;49.540;11.932;2023-12-07T12:59:51;97482.41;;;5.22;100.00
11038;BME280;5572;49.540;11.932;2023-12-07T13:02:19;97449.66;;;6.33;100.00